sensor_id;sensor_type;location;lat;lon;timestamp;pressure;altitude;pressure_sealevel;temperature;humidity
67373;BME280;54257;54.496;18.412;2023-05-27T00:02:01;100896.47;;;9.24;63.82
67373;BME280;54257;54.496;18.412;2023-05-27T00:04:28;100893.40;;;9.20;63.90
67373;BME280;54257;54.496;18.412;2023-05-27T00:06:55;100894.02;;;9.19;63.84
67373;BME280;54257;54.496;18.412;2023-05-27T00:09:21;100896.66;;;9.20;64.01
67373;BME280;54257;54.496;18.412;2023-05-27T00:11:48;100898.36;;;9.20;63.98
67373;BME280;54257;54.496;18.412;2023-05-27T00:14:15;100900.08;;;9.16;63.76
67373;BME280;54257;54.496;18.412;2023-05-27T00:16:43;100899.34;;;9.11;63.57
67373;BME280;54257;54.496;18.412;2023-05-27T00:19:10;100900.27;;;9.08;63.73
67373;BME280;54257;54.496;18.412;2023-05-27T00:21:38;100900.11;;;9.04;63.58
67373;BME280;54257;54.496;18.412;2023-05-27T00:24:05;100894.29;;;8.98;63.45
67373;BME280;54257;54.496;18.412;2023-05-27T00:26:31;100892.20;;;8.97;63.64
67373;BME280;54257;54.496;18.412;2023-05-27T00:28:58;100891.61;;;8.95;63.63
67373;BME280;54257;54.496;18.412;2023-05-27T00:31:25;100891.35;;;8.93;63.65
67373;BME280;54257;54.496;18.412;2023-05-27T00:33:52;100892.11;;;8.86;63.88
67373;BME280;54257;54.496;18.412;2023-05-27T00:36:19;100897.75;;;8.78;64.01
67373;BME280;54257;54.496;18.412;2023-05-27T00:38:46;100891.63;;;8.74;64.14
67373;BME280;54257;54.496;18.412;2023-05-27T00:41:13;100894.04;;;8.70;64.46
67373;BME280;54257;54.496;18.412;2023-05-27T00:43:39;100896.42;;;8.65;64.61
67373;BME280;54257;54.496;18.412;2023-05-27T00:46:06;100897.27;;;8.61;64.51
67373;BME280;54257;54.496;18.412;2023-05-27T00:48:33;100897.70;;;8.59;64.53
67373;BME280;54257;54.496;18.412;2023-05-27T00:51:01;100896.65;;;8.58;64.43
67373;BME280;54257;54.496;18.412;2023-05-27T00:53:36;100896.08;;;8.56;64.46
67373;BME280;54257;54.496;18.412;2023-05-27T00:56:05;100895.80;;;8.54;64.49
67373;BME280;54257;54.496;18.412;2023-05-27T00:58:34;100898.38;;;8.51;64.85
67373;BME280;54257;54.496;18.412;2023-05-27T01:01:03;100897.41;;;8.47;65.04
67373;BME280;54257;54.496;18.412;2023-05-27T01:03:31;100894.50;;;8.43;65.15
67373;BME280;54257;54.496;18.412;2023-05-27T01:06:11;100897.76;;;8.35;65.25
67373;BME280;54257;54.496;18.412;2023-05-27T01:09:35;100898.85;;;8.29;65.55
67373;BME280;54257;54.496;18.412;2023-05-27T01:11:43;100900.00;;;8.24;65.63
67373;BME280;54257;54.496;18.412;2023-05-27T01:14:13;100904.05;;;8.19;65.63
67373;BME280;54257;54.496;18.412;2023-05-27T01:16:43;100905.95;;;8.15;65.61
67373;BME280;54257;54.496;18.412;2023-05-27T01:19:20;100904.63;;;8.12;65.60
67373;BME280;54257;54.496;18.412;2023-05-27T01:21:52;100902.10;;;8.09;65.47
67373;BME280;54257;54.496;18.412;2023-05-27T01:24:20;100905.77;;;8.03;65.61
67373;BME280;54257;54.496;18.412;2023-05-27T01:26:47;100903.20;;;7.98;65.63
67373;BME280;54257;54.496;18.412;2023-05-27T01:29:14;100904.94;;;7.96;65.65
67373;BME280;54257;54.496;18.412;2023-05-27T01:31:47;100905.72;;;7.94;65.92
67373;BME280;54257;54.496;18.412;2023-05-27T01:34:22;100905.61;;;7.91;66.02
67373;BME280;54257;54.496;18.412;2023-05-27T01:36:53;100905.45;;;7.88;66.14
67373;BME280;54257;54.496;18.412;2023-05-27T01:39:23;100905.95;;;7.83;66.32
67373;BME280;54257;54.496;18.412;2023-05-27T01:41:52;100904.97;;;7.80;66.35
67373;BME280;54257;54.496;18.412;2023-05-27T01:44:20;100910.52;;;7.79;66.48
67373;BME280;54257;54.496;18.412;2023-05-27T01:46:48;100914.38;;;7.78;66.53
67373;BME280;54257;54.496;18.412;2023-05-27T01:49:15;100915.04;;;7.77;66.67
67373;BME280;54257;54.496;18.412;2023-05-27T01:51:41;100911.23;;;7.75;66.63
67373;BME280;54257;54.496;18.412;2023-05-27T01:54:08;100912.35;;;7.74;66.65
67373;BME280;54257;54.496;18.412;2023-05-27T01:56:35;100914.09;;;7.72;66.74
67373;BME280;54257;54.496;18.412;2023-05-27T01:59:03;100907.08;;;7.70;66.70
67373;BME280;54257;54.496;18.412;2023-05-27T02:01:30;100908.77;;;7.70;66.68
67373;BME280;54257;54.496;18.412;2023-05-27T02:04:00;100909.38;;;7.68;66.70
67373;BME280;54257;54.496;18.412;2023-05-27T02:06:27;100912.02;;;7.66;66.68
67373;BME280;54257;54.496;18.412;2023-05-27T02:08:53;100912.84;;;7.62;66.57
67373;BME280;54257;54.496;18.412;2023-05-27T02:11:20;100915.16;;;7.56;66.44
67373;BME280;54257;54.496;18.412;2023-05-27T02:13:47;100913.45;;;7.53;66.57
67373;BME280;54257;54.496;18.412;2023-05-27T02:16:15;100914.82;;;7.53;66.54
67373;BME280;54257;54.496;18.412;2023-05-27T02:18:41;100914.23;;;7.51;66.53
67373;BME280;54257;54.496;18.412;2023-05-27T02:21:08;100913.93;;;7.48;66.59
67373;BME280;54257;54.496;18.412;2023-05-27T02:23:35;100920.52;;;7.44;66.33
67373;BME280;54257;54.496;18.412;2023-05-27T02:26:02;100923.04;;;7.39;66.31
67373;BME280;54257;54.496;18.412;2023-05-27T02:28:29;100925.70;;;7.34;66.49
67373;BME280;54257;54.496;18.412;2023-05-27T02:30:58;100926.34;;;7.29;66.55
67373;BME280;54257;54.496;18.412;2023-05-27T02:33:25;100928.83;;;7.27;66.67
67373;BME280;54257;54.496;18.412;2023-05-27T02:35:52;100930.48;;;7.23;66.65
67373;BME280;54257;54.496;18.412;2023-05-27T02:38:18;100934.48;;;7.18;66.78
67373;BME280;54257;54.496;18.412;2023-05-27T02:40:45;100934.56;;;7.05;66.71
67373;BME280;54257;54.496;18.412;2023-05-27T02:43:12;100940.66;;;7.05;67.02
67373;BME280;54257;54.496;18.412;2023-05-27T02:45:39;100941.97;;;7.03;67.28
67373;BME280;54257;54.496;18.412;2023-05-27T02:48:07;100947.95;;;7.00;67.25
67373;BME280;54257;54.496;18.412;2023-05-27T02:50:35;100946.04;;;7.00;67.37
67373;BME280;54257;54.496;18.412;2023-05-27T02:53:01;100947.41;;;7.00;67.53
67373;BME280;54257;54.496;18.412;2023-05-27T02:55:28;100945.23;;;6.97;67.47
67373;BME280;54257;54.496;18.412;2023-05-27T02:57:55;100954.10;;;6.98;67.41
67373;BME280;54257;54.496;18.412;2023-05-27T03:00:22;100950.70;;;6.97;67.88
67373;BME280;54257;54.496;18.412;2023-05-27T03:02:49;100959.11;;;7.02;68.20
67373;BME280;54257;54.496;18.412;2023-05-27T03:05:16;100963.27;;;7.05;68.14
67373;BME280;54257;54.496;18.412;2023-05-27T03:07:43;100962.52;;;7.07;68.43
67373;BME280;54257;54.496;18.412;2023-05-27T03:10:10;100962.69;;;7.11;68.59
67373;BME280;54257;54.496;18.412;2023-05-27T03:12:37;100963.45;;;7.12;68.92
67373;BME280;54257;54.496;18.412;2023-05-27T03:15:05;100963.78;;;7.12;68.96
67373;BME280;54257;54.496;18.412;2023-05-27T03:17:36;100965.55;;;7.14;69.15
67373;BME280;54257;54.496;18.412;2023-05-27T03:20:04;100971.70;;;7.18;69.27
67373;BME280;54257;54.496;18.412;2023-05-27T03:22:35;100967.11;;;7.22;69.33
67373;BME280;54257;54.496;18.412;2023-05-27T03:25:03;100967.78;;;7.29;69.48
67373;BME280;54257;54.496;18.412;2023-05-27T03:27:31;100966.53;;;7.35;69.66
67373;BME280;54257;54.496;18.412;2023-05-27T03:29:58;100967.40;;;7.39;69.73
67373;BME280;54257;54.496;18.412;2023-05-27T03:32:25;100970.66;;;7.43;69.66
67373;BME280;54257;54.496;18.412;2023-05-27T03:34:52;100968.12;;;7.47;69.81
67373;BME280;54257;54.496;18.412;2023-05-27T03:37:19;100965.69;;;7.53;69.79
67373;BME280;54257;54.496;18.412;2023-05-27T03:39:46;100969.89;;;7.60;69.80
67373;BME280;54257;54.496;18.412;2023-05-27T03:42:13;100973.84;;;7.65;69.74
67373;BME280;54257;54.496;18.412;2023-05-27T03:44:40;100970.92;;;7.68;69.86
67373;BME280;54257;54.496;18.412;2023-05-27T03:47:07;100973.45;;;7.72;69.85
67373;BME280;54257;54.496;18.412;2023-05-27T03:49:34;100972.90;;;7.74;69.73
67373;BME280;54257;54.496;18.412;2023-05-27T03:52:01;100975.05;;;7.77;69.82
67373;BME280;54257;54.496;18.412;2023-05-27T03:54:29;100976.85;;;7.79;69.96
67373;BME280;54257;54.496;18.412;2023-05-27T03:56:56;100973.21;;;7.81;70.23
67373;BME280;54257;54.496;18.412;2023-05-27T03:59:22;100971.78;;;7.83;70.29
67373;BME280;54257;54.496;18.412;2023-05-27T04:01:49;100974.81;;;7.87;70.52
67373;BME280;54257;54.496;18.412;2023-05-27T04:04:16;100974.95;;;7.90;70.42
67373;BME280;54257;54.496;18.412;2023-05-27T04:06:43;100973.38;;;7.93;70.61
67373;BME280;54257;54.496;18.412;2023-05-27T04:09:10;100970.77;;;7.95;70.79
67373;BME280;54257;54.496;18.412;2023-05-27T04:11:37;100973.02;;;8.00;71.02
67373;BME280;54257;54.496;18.412;2023-05-27T04:14:04;100976.15;;;8.06;71.23
67373;BME280;54257;54.496;18.412;2023-05-27T04:16:33;100976.55;;;8.11;71.25
67373;BME280;54257;54.496;18.412;2023-05-27T04:19:01;100974.09;;;8.17;71.54
67373;BME280;54257;54.496;18.412;2023-05-27T04:21:28;100978.30;;;8.24;71.88
67373;BME280;54257;54.496;18.412;2023-05-27T04:23:56;100981.45;;;8.31;72.12
67373;BME280;54257;54.496;18.412;2023-05-27T04:26:24;100983.73;;;8.36;72.45
67373;BME280;54257;54.496;18.412;2023-05-27T04:28:54;100988.82;;;8.43;72.78
67373;BME280;54257;54.496;18.412;2023-05-27T04:31:27;100986.23;;;8.50;72.94
67373;BME280;54257;54.496;18.412;2023-05-27T04:33:56;100982.69;;;8.55;73.23
67373;BME280;54257;54.496;18.412;2023-05-27T04:36:24;100986.70;;;8.66;73.62
67373;BME280;54257;54.496;18.412;2023-05-27T04:38:54;100984.61;;;8.73;74.00
67373;BME280;54257;54.496;18.412;2023-05-27T04:41:24;100981.96;;;8.79;74.19
67373;BME280;54257;54.496;18.412;2023-05-27T04:43:54;100985.27;;;8.89;74.08
67373;BME280;54257;54.496;18.412;2023-05-27T04:46:25;100984.64;;;8.95;74.38
67373;BME280;54257;54.496;18.412;2023-05-27T04:48:58;100987.73;;;9.04;74.68
67373;BME280;54257;54.496;18.412;2023-05-27T04:51:26;100987.96;;;9.15;75.27
67373;BME280;54257;54.496;18.412;2023-05-27T04:53:53;100986.77;;;9.23;75.38
67373;BME280;54257;54.496;18.412;2023-05-27T04:56:21;100992.70;;;9.36;75.52
67373;BME280;54257;54.496;18.412;2023-05-27T04:58:48;100989.34;;;9.46;75.52
67373;BME280;54257;54.496;18.412;2023-05-27T05:01:16;100988.59;;;9.58;76.05
67373;BME280;54257;54.496;18.412;2023-05-27T05:03:48;100990.52;;;9.68;76.83
67373;BME280;54257;54.496;18.412;2023-05-27T05:06:20;100987.29;;;9.78;76.91
67373;BME280;54257;54.496;18.412;2023-05-27T05:08:49;100993.83;;;9.89;77.18
67373;BME280;54257;54.496;18.412;2023-05-27T05:11:16;100993.77;;;10.01;77.62
67373;BME280;54257;54.496;18.412;2023-05-27T05:13:43;100995.20;;;10.13;78.49
67373;BME280;54257;54.496;18.412;2023-05-27T05:16:10;100997.73;;;10.27;78.66
67373;BME280;54257;54.496;18.412;2023-05-27T05:18:37;100998.10;;;10.42;78.33
67373;BME280;54257;54.496;18.412;2023-05-27T05:21:04;100994.94;;;10.60;78.23
67373;BME280;54257;54.496;18.412;2023-05-27T05:23:31;100993.73;;;10.80;78.12
67373;BME280;54257;54.496;18.412;2023-05-27T05:25:58;100995.63;;;11.02;77.86
67373;BME280;54257;54.496;18.412;2023-05-27T05:28:33;100994.36;;;11.28;77.59
67373;BME280;54257;54.496;18.412;2023-05-27T05:31:01;100995.33;;;11.55;77.14
67373;BME280;54257;54.496;18.412;2023-05-27T05:33:28;100992.65;;;11.80;76.17
67373;BME280;54257;54.496;18.412;2023-05-27T05:35:55;100992.13;;;12.03;75.03
67373;BME280;54257;54.496;18.412;2023-05-27T05:38:22;100992.45;;;12.28;73.94
67373;BME280;54257;54.496;18.412;2023-05-27T05:40:50;100987.20;;;12.57;73.48
67373;BME280;54257;54.496;18.412;2023-05-27T05:43:20;100986.48;;;12.91;72.65
67373;BME280;54257;54.496;18.412;2023-05-27T05:45:46;100986.96;;;13.19;68.76
67373;BME280;54257;54.496;18.412;2023-05-27T05:48:13;100989.84;;;13.47;64.51
67373;BME280;54257;54.496;18.412;2023-05-27T05:50:40;100989.54;;;13.65;57.68
67373;BME280;54257;54.496;18.412;2023-05-27T05:53:07;100993.65;;;13.81;57.54
67373;BME280;54257;54.496;18.412;2023-05-27T05:55:34;100989.60;;;14.03;56.78
67373;BME280;54257;54.496;18.412;2023-05-27T05:58:01;100993.73;;;14.31;56.18
67373;BME280;54257;54.496;18.412;2023-05-27T06:00:28;100990.55;;;14.54;54.94
67373;BME280;54257;54.496;18.412;2023-05-27T06:02:55;100994.70;;;14.75;54.18
67373;BME280;54257;54.496;18.412;2023-05-27T06:05:22;100990.70;;;14.95;51.84
67373;BME280;54257;54.496;18.412;2023-05-27T06:07:50;100994.45;;;15.15;51.38
67373;BME280;54257;54.496;18.412;2023-05-27T06:10:17;100995.53;;;15.29;48.50
67373;BME280;54257;54.496;18.412;2023-05-27T06:12:45;101000.35;;;15.42;48.28
67373;BME280;54257;54.496;18.412;2023-05-27T06:15:11;101004.06;;;15.61;48.20
67373;BME280;54257;54.496;18.412;2023-05-27T06:17:39;101002.13;;;15.70;45.02
67373;BME280;54257;54.496;18.412;2023-05-27T06:20:09;100998.13;;;15.81;43.92
67373;BME280;54257;54.496;18.412;2023-05-27T06:22:36;101000.84;;;15.91;43.28
67373;BME280;54257;54.496;18.412;2023-05-27T06:25:03;100999.36;;;15.99;42.61
67373;BME280;54257;54.496;18.412;2023-05-27T06:27:30;101001.90;;;16.09;43.27
67373;BME280;54257;54.496;18.412;2023-05-27T06:29:57;101004.86;;;16.29;42.67
67373;BME280;54257;54.496;18.412;2023-05-27T06:32:24;101005.00;;;16.42;41.93
67373;BME280;54257;54.496;18.412;2023-05-27T06:34:52;101008.84;;;16.49;40.31
67373;BME280;54257;54.496;18.412;2023-05-27T06:37:19;101011.67;;;16.56;40.00
67373;BME280;54257;54.496;18.412;2023-05-27T06:39:46;101010.98;;;16.71;38.04
67373;BME280;54257;54.496;18.412;2023-05-27T06:42:13;101019.06;;;16.89;38.56
67373;BME280;54257;54.496;18.412;2023-05-27T06:44:41;101019.73;;;17.09;38.22
67373;BME280;54257;54.496;18.412;2023-05-27T06:47:08;101024.52;;;17.29;38.74
67373;BME280;54257;54.496;18.412;2023-05-27T06:49:35;101030.58;;;17.58;39.95
67373;BME280;54257;54.496;18.412;2023-05-27T06:52:03;101033.34;;;17.92;37.32
67373;BME280;54257;54.496;18.412;2023-05-27T06:54:30;101035.02;;;18.25;38.13
67373;BME280;54257;54.496;18.412;2023-05-27T06:56:57;101034.89;;;18.56;37.36
67373;BME280;54257;54.496;18.412;2023-05-27T06:59:25;101037.48;;;18.53;34.78
67373;BME280;54257;54.496;18.412;2023-05-27T07:01:52;101041.43;;;18.32;33.72
67373;BME280;54257;54.496;18.412;2023-05-27T07:04:18;101044.02;;;18.33;33.52
67373;BME280;54257;54.496;18.412;2023-05-27T07:06:45;101044.73;;;18.41;33.22
67373;BME280;54257;54.496;18.412;2023-05-27T07:09:12;101046.67;;;18.58;33.44
67373;BME280;54257;54.496;18.412;2023-05-27T07:11:41;101044.13;;;18.78;32.71
67373;BME280;54257;54.496;18.412;2023-05-27T07:14:08;101040.83;;;18.84;32.62
67373;BME280;54257;54.496;18.412;2023-05-27T07:16:38;101038.58;;;19.03;33.60
67373;BME280;54257;54.496;18.412;2023-05-27T07:19:05;101037.00;;;19.21;34.38
67373;BME280;54257;54.496;18.412;2023-05-27T07:21:32;101037.00;;;19.23;32.61
67373;BME280;54257;54.496;18.412;2023-05-27T07:24:02;101035.95;;;19.23;33.09
67373;BME280;54257;54.496;18.412;2023-05-27T07:26:30;101036.10;;;19.39;33.64
67373;BME280;54257;54.496;18.412;2023-05-27T07:28:58;101036.41;;;19.52;32.92
67373;BME280;54257;54.496;18.412;2023-05-27T07:31:29;101035.48;;;19.79;34.21
67373;BME280;54257;54.496;18.412;2023-05-27T07:33:56;101035.28;;;20.22;33.43
67373;BME280;54257;54.496;18.412;2023-05-27T07:36:23;101034.43;;;20.51;32.45
67373;BME280;54257;54.496;18.412;2023-05-27T07:38:50;101033.51;;;20.83;32.48
67373;BME280;54257;54.496;18.412;2023-05-27T07:41:18;101037.65;;;21.24;32.39
67373;BME280;54257;54.496;18.412;2023-05-27T07:43:45;101038.98;;;21.33;29.99
67373;BME280;54257;54.496;18.412;2023-05-27T07:46:12;101041.56;;;21.52;30.38
67373;BME280;54257;54.496;18.412;2023-05-27T07:48:40;101037.79;;;21.62;28.86
67373;BME280;54257;54.496;18.412;2023-05-27T07:51:07;101035.65;;;21.67;28.44
67373;BME280;54257;54.496;18.412;2023-05-27T07:53:34;101033.64;;;21.76;28.16
67373;BME280;54257;54.496;18.412;2023-05-27T07:56:01;101030.15;;;21.90;28.16
67373;BME280;54257;54.496;18.412;2023-05-27T07:58:27;101029.19;;;21.96;27.73
67373;BME280;54257;54.496;18.412;2023-05-27T08:00:54;101026.58;;;21.97;26.80
67373;BME280;54257;54.496;18.412;2023-05-27T08:03:21;101021.81;;;22.18;27.51
67373;BME280;54257;54.496;18.412;2023-05-27T08:05:48;101026.55;;;22.39;26.77
67373;BME280;54257;54.496;18.412;2023-05-27T08:08:15;101016.23;;;22.54;26.90
67373;BME280;54257;54.496;18.412;2023-05-27T08:10:42;101016.17;;;22.79;26.63
67373;BME280;54257;54.496;18.412;2023-05-27T08:13:11;101016.77;;;23.07;26.49
67373;BME280;54257;54.496;18.412;2023-05-27T08:15:38;101009.61;;;23.35;26.24
67373;BME280;54257;54.496;18.412;2023-05-27T08:18:05;101007.59;;;23.68;25.73
67373;BME280;54257;54.496;18.412;2023-05-27T08:20:32;101009.16;;;23.93;24.87
67373;BME280;54257;54.496;18.412;2023-05-27T08:22:59;101009.25;;;23.96;24.92
67373;BME280;54257;54.496;18.412;2023-05-27T08:25:26;101009.41;;;24.06;24.82
67373;BME280;54257;54.496;18.412;2023-05-27T08:27:54;101008.75;;;24.11;23.67
67373;BME280;54257;54.496;18.412;2023-05-27T08:30:28;101008.38;;;24.12;23.02
67373;BME280;54257;54.496;18.412;2023-05-27T08:32:56;101006.52;;;23.77;22.60
67373;BME280;54257;54.496;18.412;2023-05-27T08:35:24;101005.45;;;23.62;23.37
67373;BME280;54257;54.496;18.412;2023-05-27T08:37:51;101003.83;;;23.73;23.74
67373;BME280;54257;54.496;18.412;2023-05-27T08:40:19;101003.25;;;23.92;23.57
67373;BME280;54257;54.496;18.412;2023-05-27T08:42:47;101004.35;;;24.13;23.60
67373;BME280;54257;54.496;18.412;2023-05-27T08:45:15;100999.66;;;24.50;23.95
67373;BME280;54257;54.496;18.412;2023-05-27T08:47:42;100996.58;;;24.83;23.54
67373;BME280;54257;54.496;18.412;2023-05-27T08:50:09;100997.89;;;24.94;22.02
67373;BME280;54257;54.496;18.412;2023-05-27T08:52:47;100998.90;;;25.02;22.22
67373;BME280;54257;54.496;18.412;2023-05-27T08:55:16;100999.77;;;25.16;22.62
67373;BME280;54257;54.496;18.412;2023-05-27T08:57:57;101003.10;;;25.22;21.46
67373;BME280;54257;54.496;18.412;2023-05-27T09:00:26;101004.11;;;25.17;22.45
67373;BME280;54257;54.496;18.412;2023-05-27T09:02:53;101007.95;;;25.30;21.03
67373;BME280;54257;54.496;18.412;2023-05-27T09:05:25;101006.38;;;25.17;21.04
67373;BME280;54257;54.496;18.412;2023-05-27T09:07:52;101001.95;;;25.13;21.36
67373;BME280;54257;54.496;18.412;2023-05-27T09:10:19;101003.64;;;25.22;21.32
67373;BME280;54257;54.496;18.412;2023-05-27T09:12:46;101002.30;;;25.32;21.14
67373;BME280;54257;54.496;18.412;2023-05-27T09:15:13;101001.38;;;25.58;21.32
67373;BME280;54257;54.496;18.412;2023-05-27T09:17:46;101001.17;;;25.53;19.75
67373;BME280;54257;54.496;18.412;2023-05-27T09:20:13;100996.85;;;25.27;20.59
67373;BME280;54257;54.496;18.412;2023-05-27T09:22:41;100994.46;;;25.50;20.67
67373;BME280;54257;54.496;18.412;2023-05-27T09:25:08;100992.52;;;25.62;20.42
67373;BME280;54257;54.496;18.412;2023-05-27T09:27:35;100996.90;;;25.37;19.65
67373;BME280;54257;54.496;18.412;2023-05-27T09:30:07;100992.20;;;25.30;20.13
67373;BME280;54257;54.496;18.412;2023-05-27T09:32:35;100984.38;;;25.35;19.84
67373;BME280;54257;54.496;18.412;2023-05-27T09:35:02;100985.23;;;25.10;19.40
67373;BME280;54257;54.496;18.412;2023-05-27T09:37:34;100986.45;;;24.75;19.63
67373;BME280;54257;54.496;18.412;2023-05-27T09:40:08;100983.58;;;24.65;20.79
67373;BME280;54257;54.496;18.412;2023-05-27T09:42:47;100984.30;;;24.85;20.03
67373;BME280;54257;54.496;18.412;2023-05-27T09:45:20;100980.40;;;24.67;19.91
67373;BME280;54257;54.496;18.412;2023-05-27T09:47:52;100979.73;;;24.51;20.13
67373;BME280;54257;54.496;18.412;2023-05-27T09:50:20;100977.02;;;24.32;19.98
67373;BME280;54257;54.496;18.412;2023-05-27T09:52:49;100977.20;;;24.40;20.02
67373;BME280;54257;54.496;18.412;2023-05-27T09:55:16;100976.13;;;24.48;20.67
67373;BME280;54257;54.496;18.412;2023-05-27T09:57:44;100976.15;;;24.75;20.81
67373;BME280;54257;54.496;18.412;2023-05-27T10:00:12;100976.52;;;25.09;21.29
67373;BME280;54257;54.496;18.412;2023-05-27T10:02:40;100978.35;;;25.50;20.87
67373;BME280;54257;54.496;18.412;2023-05-27T10:05:12;100971.52;;;25.86;20.62
67373;BME280;54257;54.496;18.412;2023-05-27T10:07:41;100970.68;;;26.19;20.25
67373;BME280;54257;54.496;18.412;2023-05-27T10:10:10;100976.30;;;26.18;19.54
67373;BME280;54257;54.496;18.412;2023-05-27T10:12:42;100985.55;;;25.80;18.68
67373;BME280;54257;54.496;18.412;2023-05-27T10:15:24;100984.55;;;25.41;19.46
67373;BME280;54257;54.496;18.412;2023-05-27T10:17:55;100983.73;;;25.13;19.32
67373;BME280;54257;54.496;18.412;2023-05-27T10:20:40;100982.81;;;25.28;20.28
67373;BME280;54257;54.496;18.412;2023-05-27T10:23:27;100984.46;;;25.69;20.12
67373;BME280;54257;54.496;18.412;2023-05-27T10:26:04;100987.23;;;25.58;18.62
67373;BME280;54257;54.496;18.412;2023-05-27T10:28:39;100987.49;;;25.11;19.56
67373;BME280;54257;54.496;18.412;2023-05-27T10:31:19;100987.59;;;25.13;19.34
67373;BME280;54257;54.496;18.412;2023-05-27T10:33:48;100981.85;;;25.05;19.42
67373;BME280;54257;54.496;18.412;2023-05-27T10:36:23;100981.97;;;25.14;19.72
67373;BME280;54257;54.496;18.412;2023-05-27T10:38:56;100980.11;;;25.18;20.21
67373;BME280;54257;54.496;18.412;2023-05-27T10:41:24;100979.30;;;25.23;19.95
67373;BME280;54257;54.496;18.412;2023-05-27T10:43:59;100978.08;;;25.41;19.95
67373;BME280;54257;54.496;18.412;2023-05-27T10:46:38;100979.43;;;25.55;19.39
67373;BME280;54257;54.496;18.412;2023-05-27T10:49:45;100974.68;;;25.05;18.38
67373;BME280;54257;54.496;18.412;2023-05-27T10:52:10;100967.59;;;24.25;18.92
67373;BME280;54257;54.496;18.412;2023-05-27T10:54:40;100970.30;;;23.64;19.54
67373;BME280;54257;54.496;18.412;2023-05-27T10:57:08;100968.89;;;23.48;20.41
67373;BME280;54257;54.496;18.412;2023-05-27T10:59:52;100963.35;;;23.72;20.12
67373;BME280;54257;54.496;18.412;2023-05-27T11:02:20;100960.08;;;23.95;20.80
67373;BME280;54257;54.496;18.412;2023-05-27T11:04:48;100953.36;;;24.20;20.12
67373;BME280;54257;54.496;18.412;2023-05-27T11:07:20;100953.39;;;24.56;20.59
67373;BME280;54257;54.496;18.412;2023-05-27T11:09:50;100951.29;;;24.90;20.14
67373;BME280;54257;54.496;18.412;2023-05-27T11:12:19;100952.54;;;25.03;19.10
67373;BME280;54257;54.496;18.412;2023-05-27T11:14:48;100952.62;;;24.86;18.94
67373;BME280;54257;54.496;18.412;2023-05-27T11:17:18;100956.06;;;24.47;18.58
67373;BME280;54257;54.496;18.412;2023-05-27T11:19:45;100950.98;;;24.33;19.34
67373;BME280;54257;54.496;18.412;2023-05-27T11:22:14;100951.08;;;24.13;19.17
67373;BME280;54257;54.496;18.412;2023-05-27T11:24:41;100951.90;;;24.08;19.90
67373;BME280;54257;54.496;18.412;2023-05-27T11:27:10;100950.89;;;23.91;19.68
67373;BME280;54257;54.496;18.412;2023-05-27T11:29:38;100944.61;;;24.07;20.11
67373;BME280;54257;54.496;18.412;2023-05-27T11:32:06;100942.32;;;24.14;20.21
67373;BME280;54257;54.496;18.412;2023-05-27T11:34:34;100952.98;;;23.99;20.21
67373;BME280;54257;54.496;18.412;2023-05-27T11:37:02;100946.92;;;23.81;19.85
67373;BME280;54257;54.496;18.412;2023-05-27T11:39:32;100941.16;;;23.47;20.32
67373;BME280;54257;54.496;18.412;2023-05-27T11:41:59;100937.30;;;23.66;21.10
67373;BME280;54257;54.496;18.412;2023-05-27T11:44:27;100937.77;;;23.77;20.27
67373;BME280;54257;54.496;18.412;2023-05-27T11:46:58;100936.63;;;23.89;20.72
67373;BME280;54257;54.496;18.412;2023-05-27T11:49:28;100933.43;;;24.06;20.24
67373;BME280;54257;54.496;18.412;2023-05-27T11:51:56;100930.80;;;23.77;19.61
67373;BME280;54257;54.496;18.412;2023-05-27T11:56:52;100934.30;;;22.98;19.84
67373;BME280;54257;54.496;18.412;2023-05-27T11:59:21;100941.75;;;22.60;20.41
67373;BME280;54257;54.496;18.412;2023-05-27T12:01:49;100938.45;;;22.59;20.56
67373;BME280;54257;54.496;18.412;2023-05-27T12:04:16;100932.13;;;22.72;20.93
67373;BME280;54257;54.496;18.412;2023-05-27T12:06:45;100928.50;;;23.01;21.22
67373;BME280;54257;54.496;18.412;2023-05-27T12:09:14;100926.45;;;23.25;20.49
67373;BME280;54257;54.496;18.412;2023-05-27T12:11:45;100920.23;;;23.48;21.10
67373;BME280;54257;54.496;18.412;2023-05-27T12:14:12;100915.02;;;23.46;19.36
67373;BME280;54257;54.496;18.412;2023-05-27T12:16:39;100920.55;;;22.97;19.55
67373;BME280;54257;54.496;18.412;2023-05-27T12:19:06;100920.92;;;22.96;20.53
67373;BME280;54257;54.496;18.412;2023-05-27T12:21:33;100918.88;;;23.11;20.60
67373;BME280;54257;54.496;18.412;2023-05-27T12:24:03;100915.45;;;23.26;20.10
67373;BME280;54257;54.496;18.412;2023-05-27T12:26:33;100909.14;;;23.44;20.74
67373;BME280;54257;54.496;18.412;2023-05-27T12:29:00;100911.73;;;23.70;20.28
67373;BME280;54257;54.496;18.412;2023-05-27T12:31:30;100905.88;;;23.67;19.65
67373;BME280;54257;54.496;18.412;2023-05-27T12:33:57;100908.50;;;23.75;19.98
67373;BME280;54257;54.496;18.412;2023-05-27T12:36:24;100906.23;;;23.97;20.04
67373;BME280;54257;54.496;18.412;2023-05-27T12:38:53;100900.66;;;23.82;18.79
67373;BME280;54257;54.496;18.412;2023-05-27T12:41:23;100897.40;;;23.87;19.78
67373;BME280;54257;54.496;18.412;2023-05-27T12:43:53;100892.48;;;23.95;19.01
67373;BME280;54257;54.496;18.412;2023-05-27T12:46:20;100890.89;;;23.97;19.32
67373;BME280;54257;54.496;18.412;2023-05-27T12:48:54;100891.84;;;24.08;19.03
67373;BME280;54257;54.496;18.412;2023-05-27T12:51:25;100888.77;;;23.98;19.18
67373;BME280;54257;54.496;18.412;2023-05-27T12:53:52;100884.52;;;24.01;18.87